KDAA

Davison AAF Airport

Fort Belvoir, Virginia, USA
TAF KDAA 251700Z 2517/2623 14009KT 8000 -SHRA FEW010 OVC030 QNH3010INS BECMG 2523/2524 17006KT 9999 NSW OVC030 QNH3008INS BECMG 2603/2604 18006KT 9999 BKN010 OVC020 QNH2999INS BECMG 2613/2614 21012KT 9999 BKN020 QNH2989INS BECMG 2619/2620 27012KT 8000 -SHRA BKN020 OVC030 QNH2989INS TEMPO 2620/2623 30012G18KT -TSRA OVC020CB TX27/2521Z TN22/2611Z
Issued Valid From Valid To
Sep-25 @ 17:00 UTC
(40 minutes ago)
Sep-25 @ 17:00 UTC
(40 minutes ago)
Sep-26 @ 23:00 UTC
(-1 days ago)
Sep-25 @ 17:00 to Sep-25 @ 23:00
TAF KDAA 251700Z 2517/2623 14009KT 8000 -SHRA FEW010 OVC030 QNH3010INS
Wind Visibility Clouds Conditions Readings
140° at 9 knots 5.0 miles
  • Few at 1,000' AGL
  • Overcast at 3,000' AGL
  • Light Rain
Altimeter 30.09" Hg
Pressure 1019 hPa
Becoming Sep-25 @ 23:00 to Sep-26 @ 03:00
BECMG 2523/2524 17006KT 9999 NSW OVC030 QNH3008INS
Wind Visibility Clouds Conditions Readings
170° at 6 knots Greater than 6 miles
  • Overcast at 3,000' AGL
Altimeter 30.09" Hg
Pressure 1019 hPa
Becoming Sep-26 @ 03:00 to Sep-26 @ 13:00
BECMG 2603/2604 18006KT 9999 BKN010 OVC020 QNH2999INS
Wind Visibility Clouds Conditions Readings
180° at 6 knots Greater than 6 miles
  • Broken at 1,000' AGL
  • Overcast at 2,000' AGL
Altimeter 30" Hg
Pressure 1016 hPa
Becoming Sep-26 @ 13:00 to Sep-26 @ 19:00
BECMG 2613/2614 21012KT 9999 BKN020 QNH2989INS
Wind Visibility Clouds Conditions Readings
210° at 12 knots Greater than 6 miles
  • Broken at 2,000' AGL
Altimeter 29.88" Hg
Pressure 1012 hPa
Becoming Sep-26 @ 19:00 to Sep-26 @ 23:00
BECMG 2619/2620 27012KT 8000 -SHRA BKN020 OVC030 QNH2989INS
Wind Visibility Clouds Conditions Readings
270° at 12 knots 5.0 miles
  • Broken at 2,000' AGL
  • Overcast at 3,000' AGL
  • Light Rain
Altimeter 29.88" Hg
Pressure 1012 hPa
Temporary Sep-26 @ 20:00 to Sep-26 @ 23:00
TEMPO 2620/2623 30012G18KT -TSRA OVC020CB TX27/2521Z TN22/2611Z
Wind Clouds Conditions
300° at 12 knots
 Gusting to 18 knots
  • Overcast at 2,000' AGL
  • Light Thunderstorm
  • Light Rain
TAF KDAA 251700Z 2517/2623 14009KT 8000 -SHRA FEW010 OVC030 QNH3010INS BECMG 2523/2524 17006KT 9999 NSW OVC030 QNH3008INS BECMG 2603/2604 18006KT 9999 BKN010 OVC020 QNH2999INS BECMG 2613/2614 21012KT 9999 BKN020 QNH2989INS BECMG 2619/2620 27012KT 8000 -SHRA BKN020 OVC030 QNH2989INS TEMPO 2620/2623 30012G18KT -TSRA OVC020CB TX27/2521Z TN22/2611Z
Issued Sep-25 @ 17:00 UTC
(40 minutes ago)
Valid From Sep-25 @ 17:00 UTC
(40 minutes ago)
Valid To Sep-26 @ 23:00 UTC
(-1 days ago)
Sep-25 @ 17:00 - Sep-25 @ 23:00
Wind Visibility
140° at 9 knots 5.0 miles
Clouds
  • Few at 1,000' AGL
  • Overcast at 3,000' AGL
Conditions
  • Light Rain
Becoming Sep-25 @ 23:00 - Sep-26 @ 03:00
Wind Visibility
170° at 6 knots Greater than 6 miles
Clouds
  • Overcast at 3,000' AGL
Conditions
Becoming Sep-26 @ 03:00 - Sep-26 @ 13:00
Wind Visibility
180° at 6 knots Greater than 6 miles
Clouds
  • Broken at 1,000' AGL
  • Overcast at 2,000' AGL
Conditions
Becoming Sep-26 @ 13:00 - Sep-26 @ 19:00
Wind Visibility
210° at 12 knots Greater than 6 miles
Clouds
  • Broken at 2,000' AGL
Conditions
Becoming Sep-26 @ 19:00 - Sep-26 @ 23:00
Wind Visibility
270° at 12 knots 5.0 miles
Clouds
  • Broken at 2,000' AGL
  • Overcast at 3,000' AGL
Conditions
  • Light Rain
Temporary Sep-26 @ 20:00 - Sep-26 @ 23:00
Wind
300° at 12 knots
 Gusting to 18 knots
Clouds
  • Overcast at 2,000' AGL
Conditions
  • Light Thunderstorm
  • Light Rain